createdAt,value
2018-04-17T00:02:20.840Z,8.10
2018-04-17T00:04:50.247Z,8.23
2018-04-17T00:07:19.110Z,7.60
2018-04-17T00:09:48.089Z,7.47
2018-04-17T00:12:17.959Z,7.77
2018-04-17T00:14:46.544Z,7.40
2018-04-17T00:17:15.201Z,8.13
2018-04-17T00:19:43.748Z,7.63
2018-04-17T00:22:13.246Z,7.97
2018-04-17T00:24:42.005Z,7.80
2018-04-17T00:27:10.816Z,7.73
2018-04-17T00:29:39.639Z,7.83
2018-04-17T00:32:08.212Z,7.57
2018-04-17T00:34:36.827Z,7.37
2018-04-17T00:37:05.542Z,7.80
2018-04-17T00:39:34.318Z,8.73
2018-04-17T00:42:04.390Z,7.93
2018-04-17T00:44:33.276Z,9.03
2018-04-17T00:47:02.647Z,8.40
2018-04-17T00:49:31.185Z,8.70
2018-04-17T00:51:59.724Z,8.80
2018-04-17T00:54:28.416Z,8.77
2018-04-17T00:56:56.982Z,8.83
2018-04-17T00:59:25.580Z,8.43
2018-04-17T01:01:54.259Z,8.53
2018-04-17T01:04:22.845Z,8.27
2018-04-17T01:06:51.398Z,8.00
2018-04-17T01:09:20.140Z,7.47
2018-04-17T01:11:49.630Z,8.70
2018-04-17T01:14:18.668Z,8.13
2018-04-17T01:16:47.635Z,7.63
2018-04-17T01:19:16.415Z,7.97
2018-04-17T01:21:45.877Z,8.50
2018-04-17T01:24:14.559Z,7.60
2018-04-17T01:26:43.182Z,7.57
2018-04-17T01:29:11.858Z,7.77
2018-04-17T01:31:41.176Z,7.87
2018-04-17T01:34:10.583Z,8.27
2018-04-17T01:36:39.892Z,7.33
2018-04-17T01:39:08.663Z,6.87
2018-04-17T01:41:37.426Z,7.20
2018-04-17T01:44:08.136Z,7.70
2018-04-17T01:46:37.879Z,6.87
2018-04-17T01:49:06.745Z,8.00
2018-04-17T01:51:36.308Z,8.33
2018-04-17T01:54:05.093Z,7.30
2018-04-17T01:56:33.880Z,7.20
2018-04-17T01:59:03.325Z,8.00
2018-04-17T02:01:31.939Z,8.27
2018-04-17T02:04:00.721Z,8.70
2018-04-17T02:06:30.368Z,8.53
2018-04-17T02:08:59.092Z,8.47
2018-04-17T02:11:27.834Z,8.73
2018-04-17T02:13:56.533Z,8.10
2018-04-17T02:16:26.875Z,8.23
2018-04-17T02:18:55.862Z,8.50
2018-04-17T02:21:24.469Z,8.60
2018-04-17T02:23:53.094Z,7.80
2018-04-17T02:26:21.755Z,7.93
2018-04-17T02:28:51.118Z,8.27
2018-04-17T02:31:19.760Z,9.20
2018-04-17T02:33:48.403Z,7.43
2018-04-17T02:36:17.124Z,8.87
2018-04-17T02:38:45.802Z,7.73
2018-04-17T02:41:15.159Z,8.47
2018-04-17T02:43:43.729Z,7.73
2018-04-17T02:46:13.083Z,7.37
2018-04-17T02:48:42.063Z,9.00
2018-04-17T02:51:12.437Z,8.20
2018-04-17T02:53:41.039Z,9.17
2018-04-17T02:56:09.738Z,7.97
2018-04-17T02:58:38.668Z,8.30
2018-04-17T03:01:07.239Z,8.20
2018-04-17T03:03:36.522Z,8.63
2018-04-17T03:06:05.229Z,8.33
2018-04-17T03:08:33.975Z,8.87
2018-04-17T03:11:02.615Z,8.50
2018-04-17T03:13:31.313Z,8.73
2018-04-17T03:15:59.937Z,8.37
2018-04-17T03:18:28.436Z,8.57
2018-04-17T03:20:57.116Z,8.23
2018-04-17T03:23:26.260Z,8.77
2018-04-17T03:25:55.266Z,9.43
2018-04-17T03:28:23.954Z,8.73
2018-04-17T03:30:53.441Z,8.40
2018-04-17T03:33:22.041Z,9.27
2018-04-17T03:35:50.593Z,8.37
2018-04-17T03:38:19.980Z,8.73
2018-04-17T03:40:48.495Z,8.83
2018-04-17T03:43:17.098Z,8.57
2018-04-17T03:45:45.632Z,8.60
2018-04-17T03:48:14.212Z,8.87
2018-04-17T03:50:43.993Z,8.57
2018-04-17T03:53:13.456Z,9.23
2018-04-17T03:55:42.839Z,8.90
2018-04-17T03:58:12.146Z,8.13
2018-04-17T04:00:40.833Z,9.27
2018-04-17T04:03:10.325Z,9.83
2018-04-17T04:05:38.935Z,8.70
2018-04-17T04:08:08.432Z,9.83
2018-04-17T04:10:36.922Z,8.93
2018-04-17T04:13:05.470Z,8.77
2018-04-17T04:15:34.205Z,8.87
2018-04-17T04:18:21.520Z,8.57
2018-04-17T04:21:08.511Z,8.83
2018-04-17T04:23:55.094Z,8.60
2018-04-17T04:26:33.124Z,9.57
2018-04-17T04:29:01.756Z,9.07
2018-04-17T04:31:31.189Z,13.13
2018-04-17T04:34:00.673Z,11.83
2018-04-17T04:36:29.493Z,9.20
2018-04-17T04:38:58.448Z,8.40
2018-04-17T04:41:28.003Z,8.57
2018-04-17T04:43:56.937Z,9.67
2018-04-17T04:46:25.561Z,8.53
2018-04-17T04:48:54.191Z,8.83
2018-04-17T04:51:23.522Z,8.87
2018-04-17T04:53:52.163Z,8.77
2018-04-17T04:56:20.743Z,8.77
2018-04-17T04:58:49.297Z,8.97
2018-04-17T05:01:17.869Z,9.90
2018-04-17T05:03:46.456Z,8.47
2018-04-17T05:06:15.027Z,8.07
2018-04-17T05:08:43.626Z,9.70
2018-04-17T05:11:12.645Z,8.73
2018-04-17T05:13:42.295Z,8.60
2018-04-17T05:16:11.868Z,7.97
2018-04-17T05:18:40.567Z,8.33
2018-04-17T05:21:09.137Z,8.73
2018-04-17T05:23:38.596Z,9.27
2018-04-17T05:26:07.307Z,8.53
2018-04-17T05:28:35.995Z,9.67
2018-04-17T05:31:04.928Z,8.67
2018-04-17T05:33:33.552Z,8.50
2018-04-17T05:36:02.141Z,9.57
2018-04-17T05:38:30.919Z,7.80
2018-04-17T05:41:00.240Z,9.27
2018-04-17T05:43:30.046Z,7.17
2018-04-17T05:45:59.185Z,6.47
2018-04-17T05:48:27.959Z,6.77
2018-04-17T05:50:57.406Z,7.27
2018-04-17T05:53:26.879Z,7.00
2018-04-17T05:55:55.598Z,7.07
2018-04-17T05:58:24.237Z,8.00
2018-04-17T06:00:52.889Z,7.93
2018-04-17T06:03:21.477Z,7.33
2018-04-17T06:05:50.213Z,6.93
2018-04-17T06:08:18.825Z,7.10
2018-04-17T06:10:47.759Z,6.83
2018-04-17T06:13:17.311Z,6.83
2018-04-17T06:15:47.399Z,6.67
2018-04-17T06:18:16.653Z,7.53
2018-04-17T06:20:45.551Z,6.70
2018-04-17T06:23:14.183Z,7.13
2018-04-17T06:25:43.760Z,7.17
2018-04-17T06:28:12.471Z,6.77
2018-04-17T06:30:41.310Z,6.73
2018-04-17T06:33:10.199Z,7.33
2018-04-17T06:35:39.314Z,7.67
2018-04-17T06:38:08.004Z,7.73
2018-04-17T06:40:36.618Z,7.23
2018-04-17T06:43:05.322Z,7.53
2018-04-17T06:45:33.894Z,7.50
2018-04-17T06:48:03.450Z,7.97
2018-04-17T06:50:33.493Z,8.30
2018-04-17T06:53:02.441Z,8.17
2018-04-17T06:55:31.166Z,7.17
2018-04-17T06:58:00.280Z,7.83
2018-04-17T07:00:28.800Z,8.10
2018-04-17T07:02:57.354Z,7.67
2018-04-17T07:05:25.999Z,7.80
2018-04-17T07:07:54.689Z,8.17
2018-04-17T07:10:23.652Z,9.20
2018-04-17T07:12:52.302Z,7.90
2018-04-17T07:15:21.184Z,7.83
2018-04-17T07:17:49.840Z,8.20
2018-04-17T07:20:18.673Z,8.60
2018-04-17T07:22:49.444Z,8.87
2018-04-17T07:25:18.362Z,8.20
2018-04-17T07:27:46.939Z,7.90
2018-04-17T07:30:16.365Z,8.47
2018-04-17T07:32:45.767Z,8.73
2018-04-17T07:35:14.545Z,8.83
2018-04-17T07:37:43.142Z,7.73
2018-04-17T07:40:11.844Z,7.43
2018-04-17T07:42:40.486Z,7.63
2018-04-17T07:45:09.900Z,7.20
2018-04-17T07:47:38.723Z,8.43
2018-04-17T07:50:07.491Z,8.00
2018-04-17T07:52:36.953Z,7.53
2018-04-17T07:55:06.130Z,7.63
2018-04-17T07:57:34.894Z,8.07
2018-04-17T08:00:03.534Z,7.53
2018-04-17T08:02:32.216Z,8.00
2018-04-17T08:05:01.649Z,7.63
2018-04-17T08:07:30.649Z,7.30
2018-04-17T08:09:59.973Z,7.50
2018-04-17T08:12:28.535Z,8.80
2018-04-17T08:14:57.155Z,7.10
2018-04-17T08:17:25.936Z,7.40
2018-04-17T08:19:54.863Z,7.33
2018-04-17T08:22:23.572Z,7.57
2018-04-17T08:24:52.488Z,7.10
2018-04-17T08:27:21.851Z,7.87
2018-04-17T08:29:51.330Z,7.13
2018-04-17T08:32:20.069Z,7.90
2018-04-17T08:34:48.786Z,8.13
2018-04-17T08:37:17.384Z,8.03
2018-04-17T08:39:46.059Z,7.50
2018-04-17T08:42:14.722Z,7.20
2018-04-17T08:44:44.320Z,8.00
2018-04-17T08:47:13.479Z,8.23
2018-04-17T08:49:42.076Z,8.73
2018-04-17T08:52:11.529Z,8.33
2018-04-17T08:54:40.145Z,8.40
2018-04-17T08:57:08.843Z,9.20
2018-04-17T08:59:38.263Z,8.67
2018-04-17T09:02:07.972Z,8.20
2018-04-17T09:04:37.645Z,8.37
2018-04-17T09:07:06.547Z,9.47
2018-04-17T09:09:36.359Z,8.70
2018-04-17T09:12:05.363Z,9.47
2018-04-17T09:14:35.000Z,8.07
2018-04-17T09:17:03.744Z,7.93
2018-04-17T09:19:34.617Z,8.90
2018-04-17T09:22:04.211Z,8.03
2018-04-17T09:24:32.881Z,8.50
2018-04-17T09:27:03.781Z,9.00
2018-04-17T09:29:33.187Z,9.10
2018-04-17T09:32:01.909Z,9.33
2018-04-17T09:34:30.795Z,9.87
2018-04-17T09:37:00.331Z,8.83
2018-04-17T09:39:29.190Z,9.47
2018-04-17T09:41:58.709Z,10.80
2018-04-17T09:44:28.798Z,9.77
2018-04-17T09:46:58.465Z,10.20
2018-04-17T09:49:27.216Z,9.60
2018-04-17T09:51:56.876Z,9.77
2018-04-17T09:54:25.709Z,11.27
2018-04-17T09:56:54.659Z,11.97
2018-04-17T09:59:24.286Z,11.00
2018-04-17T10:01:54.531Z,10.80
2018-04-17T10:04:24.488Z,10.40
2018-04-17T10:06:53.921Z,11.13
2018-04-17T10:09:22.927Z,10.30
2018-04-17T10:11:51.570Z,11.47
2018-04-17T10:14:20.620Z,9.60
2018-04-17T10:16:49.356Z,11.67
2018-04-17T10:19:18.119Z,10.63
2018-04-17T10:21:46.911Z,12.47
2018-04-17T10:24:16.131Z,10.40
2018-04-17T10:26:44.868Z,10.10
2018-04-17T10:29:14.035Z,11.80
2018-04-17T10:31:44.228Z,11.37
2018-04-17T10:34:13.943Z,11.00
2018-04-17T10:36:43.268Z,11.00
2018-04-17T10:39:13.051Z,10.27
2018-04-17T10:41:42.561Z,10.70
2018-04-17T10:44:11.860Z,10.40
2018-04-17T10:46:40.698Z,10.63
2018-04-17T10:49:09.359Z,11.40
2018-04-17T10:51:38.004Z,11.07
2018-04-17T10:54:07.396Z,11.20
2018-04-17T10:56:36.182Z,10.17
2018-04-17T10:59:05.605Z,10.87
2018-04-17T11:01:34.671Z,10.03
2018-04-17T11:04:04.136Z,9.87
2018-04-17T11:06:32.831Z,10.83
2018-04-17T11:09:01.803Z,11.40
2018-04-17T11:11:32.145Z,10.57
2018-04-17T11:14:00.913Z,9.53
2018-04-17T11:16:29.828Z,9.80
2018-04-17T11:18:58.492Z,10.53
2018-04-17T11:21:27.128Z,10.67
2018-04-17T11:23:55.843Z,9.93
2018-04-17T11:26:24.505Z,10.70
2018-04-17T11:28:53.337Z,11.63
2018-04-17T11:31:23.773Z,10.13
2018-04-17T11:33:52.609Z,10.10
2018-04-17T11:36:21.262Z,10.20
2018-04-17T11:38:49.884Z,10.50
2018-04-17T11:41:18.530Z,10.27
2018-04-17T11:43:47.955Z,10.47
2018-04-17T11:46:16.590Z,10.90
2018-04-17T11:48:45.263Z,11.07
2018-04-17T11:51:14.369Z,9.93
2018-04-17T11:53:43.051Z,10.93
2018-04-17T11:56:11.897Z,10.10
2018-04-17T11:58:41.577Z,11.00
2018-04-17T12:01:10.567Z,10.90
2018-04-17T12:03:40.073Z,10.90
2018-04-17T12:06:11.449Z,10.97
2018-04-17T12:08:40.108Z,10.40
2018-04-17T12:11:09.109Z,9.43
2018-04-17T12:13:38.004Z,11.17
2018-04-17T12:16:06.757Z,11.13
2018-04-17T12:18:36.354Z,10.30
2018-04-17T12:21:05.417Z,10.03
2018-04-17T12:23:35.436Z,10.57
2018-04-17T12:26:05.393Z,11.17
2018-04-17T12:28:34.746Z,10.77
2018-04-17T12:31:04.873Z,10.53
2018-04-17T12:33:34.814Z,11.27
2018-04-17T12:36:04.969Z,9.93
2018-04-17T12:38:33.716Z,10.60
2018-04-17T12:41:02.526Z,9.93
2018-04-17T12:43:32.030Z,10.20
2018-04-17T12:46:00.577Z,10.00
2018-04-17T12:48:29.231Z,9.73
2018-04-17T12:50:57.923Z,11.00
2018-04-17T12:53:26.514Z,10.13
2018-04-17T12:55:55.180Z,10.00
2018-04-17T12:58:24.653Z,9.83
2018-04-17T13:00:53.496Z,9.83
2018-04-17T13:03:23.091Z,10.20
2018-04-17T13:05:52.059Z,10.63
2018-04-17T13:08:20.866Z,10.83
2018-04-17T13:10:50.329Z,11.27
2018-04-17T13:13:19.027Z,11.23
2018-04-17T13:15:47.746Z,10.40
2018-04-17T13:18:16.471Z,9.73
2018-04-17T13:20:45.234Z,10.60
2018-04-17T13:23:14.702Z,10.03
2018-04-17T13:25:43.674Z,9.43
2018-04-17T13:28:13.235Z,9.30
2018-04-17T13:30:42.001Z,8.33
2018-04-17T13:33:12.071Z,8.90
2018-04-17T13:35:42.139Z,8.13
2018-04-17T13:38:10.806Z,8.53
2018-04-17T13:40:39.458Z,8.07
2018-04-17T13:43:08.082Z,8.67
2018-04-17T13:45:36.842Z,9.87
2018-04-17T13:48:05.664Z,8.90
2018-04-17T13:50:34.273Z,10.80
2018-04-17T13:53:02.900Z,9.83
2018-04-17T13:55:32.395Z,9.90
2018-04-17T13:58:01.111Z,9.37
2018-04-17T14:00:29.757Z,10.37
2018-04-17T14:02:58.332Z,10.43
2018-04-17T14:05:27.525Z,9.60
2018-04-17T14:07:57.381Z,8.73
2018-04-17T14:10:26.897Z,8.57
2018-04-17T14:12:55.526Z,8.77
2018-04-17T14:15:24.157Z,8.37
2018-04-17T14:17:52.749Z,7.57
2018-04-17T14:20:21.584Z,6.97
2018-04-17T14:22:51.116Z,7.07
2018-04-17T14:25:20.651Z,7.17
2018-04-17T14:27:49.369Z,7.10
2018-04-17T14:30:20.123Z,7.00
2018-04-17T14:32:49.025Z,7.57
2018-04-17T14:35:18.653Z,7.33
2018-04-17T14:37:48.718Z,6.97
2018-04-17T14:40:18.165Z,7.57
2018-04-17T14:42:49.181Z,8.47
2018-04-17T14:45:17.928Z,8.20
2018-04-17T14:47:47.178Z,8.80
2018-04-17T14:50:15.927Z,8.70
2018-04-17T14:52:44.762Z,8.93
2018-04-17T14:55:14.022Z,8.93
2018-04-17T14:57:42.699Z,8.83
2018-04-17T15:00:12.989Z,8.23
2018-04-17T15:02:42.022Z,8.73
2018-04-17T15:05:10.767Z,7.50
2018-04-17T15:07:40.020Z,9.23
2018-04-17T15:10:12.181Z,8.77
2018-04-17T15:12:41.321Z,9.60
2018-04-17T15:15:11.987Z,8.37
2018-04-17T15:17:42.740Z,8.57
2018-04-17T15:20:14.289Z,8.67
2018-04-17T15:22:45.919Z,8.47
2018-04-17T15:25:15.034Z,8.70
2018-04-17T15:27:47.053Z,7.83
2018-04-17T15:30:19.482Z,7.83
2018-04-17T15:32:50.077Z,8.63
2018-04-17T15:35:19.469Z,8.17
2018-04-17T15:37:48.895Z,8.93
2018-04-17T15:40:17.686Z,8.70
2018-04-17T15:42:46.443Z,10.93
2018-04-17T15:45:15.263Z,10.07
2018-04-17T15:47:44.180Z,10.57
2018-04-17T15:50:12.859Z,9.67
2018-04-17T15:52:41.624Z,10.77
2018-04-17T15:55:11.194Z,9.23
2018-04-17T15:57:40.087Z,10.13
2018-04-17T16:00:09.479Z,9.43
2018-04-17T16:02:40.261Z,9.23
2018-04-17T16:05:10.092Z,9.07
2018-04-17T16:07:39.072Z,10.80
2018-04-17T16:10:07.943Z,8.87
2018-04-17T16:12:37.756Z,8.83
2018-04-17T16:15:07.005Z,8.63
2018-04-17T16:17:36.103Z,8.13
2018-04-17T16:20:05.072Z,9.57
2018-04-17T16:22:34.586Z,9.67
2018-04-17T16:25:05.235Z,8.47
2018-04-17T16:27:35.487Z,9.13
2018-04-17T16:30:05.689Z,8.43
2018-04-17T16:32:34.477Z,8.83
2018-04-17T16:35:03.453Z,8.07
2018-04-17T16:37:36.344Z,8.47
2018-04-17T16:40:05.193Z,9.30
2018-04-17T16:42:35.190Z,8.80
2018-04-17T16:45:04.516Z,8.67
2018-04-17T16:47:33.239Z,9.40
2018-04-17T16:50:01.799Z,8.60
2018-04-17T16:52:30.664Z,8.13
2018-04-17T16:55:00.480Z,8.50
2018-04-17T16:57:31.223Z,9.73
2018-04-17T17:00:00.106Z,7.67
2018-04-17T17:02:30.264Z,8.47
2018-04-17T17:04:59.825Z,7.73
2018-04-17T17:07:29.507Z,7.87
2018-04-17T17:09:58.200Z,8.13
2018-04-17T17:12:26.899Z,8.17
2018-04-17T17:14:55.637Z,7.57
2018-04-17T17:17:25.229Z,7.53
2018-04-17T17:19:54.361Z,7.43
2018-04-17T17:22:23.392Z,8.10
2018-04-17T17:24:52.812Z,8.10
2018-04-17T17:27:22.042Z,8.17
2018-04-17T17:29:50.797Z,8.37
2018-04-17T17:32:20.349Z,7.83
2018-04-17T17:34:49.145Z,8.23
2018-04-17T17:37:18.096Z,8.07
2018-04-17T17:39:46.970Z,7.90
2018-04-17T17:42:16.049Z,7.60
2018-04-17T17:44:44.778Z,6.90
2018-04-17T17:47:14.451Z,8.70
2018-04-17T17:49:43.308Z,7.67
2018-04-17T17:52:12.304Z,8.47
2018-04-17T17:54:41.702Z,9.10
2018-04-17T17:57:11.702Z,8.33
2018-04-17T17:59:40.985Z,7.73
2018-04-17T18:02:09.758Z,8.43
2018-04-17T18:04:38.415Z,9.20
2018-04-17T18:07:07.114Z,8.47
2018-04-17T18:09:35.801Z,7.60
2018-04-17T18:12:04.810Z,7.47
2018-04-17T18:14:33.418Z,8.30
2018-04-17T18:17:03.253Z,9.07
2018-04-17T18:19:31.911Z,8.43
2018-04-17T18:22:01.263Z,8.53
2018-04-17T18:24:30.385Z,8.10
2018-04-17T18:26:59.610Z,8.23
2018-04-17T18:29:29.549Z,8.57
2018-04-17T18:31:58.522Z,8.87
2018-04-17T18:34:27.437Z,8.40
2018-04-17T18:36:56.220Z,9.50
2018-04-17T18:39:25.613Z,9.03
2018-04-17T18:41:54.629Z,9.03
2018-04-17T18:44:23.451Z,10.27
2018-04-17T18:46:52.473Z,9.50
2018-04-17T18:49:22.108Z,8.90
2018-04-17T18:51:52.029Z,10.60
2018-04-17T18:54:22.564Z,26.67
2018-04-17T18:56:51.843Z,20.90
2018-04-17T18:59:21.114Z,9.23
2018-04-17T19:01:49.885Z,9.97
2018-04-17T19:04:18.609Z,8.70
2018-04-17T19:06:47.433Z,9.07
2018-04-17T19:09:16.149Z,9.93
2018-04-17T19:11:44.973Z,8.70
2018-04-17T19:14:14.828Z,9.30
2018-04-17T19:16:44.891Z,9.03
2018-04-17T19:19:14.058Z,8.83
2018-04-17T19:21:44.642Z,8.50
2018-04-17T19:24:14.362Z,7.90
2018-04-17T19:26:44.027Z,8.20
2018-04-17T19:29:13.111Z,9.10
2018-04-17T19:31:42.176Z,8.57
2018-04-17T19:34:11.092Z,7.70
2018-04-17T19:36:39.827Z,9.00
2018-04-17T19:39:10.101Z,8.60
2018-04-17T19:41:39.585Z,7.47
2018-04-17T19:44:08.768Z,7.20
2018-04-17T19:46:37.711Z,7.47
2018-04-17T19:49:06.683Z,8.97
2018-04-17T19:51:35.792Z,7.10
2018-04-17T19:54:05.422Z,6.57
2018-04-17T19:56:34.307Z,8.10
2018-04-17T19:59:03.909Z,8.27
2018-04-17T20:01:32.589Z,7.17
2018-04-17T20:04:01.303Z,7.70
2018-04-17T20:06:30.078Z,7.97
2018-04-17T20:08:59.119Z,7.40
2018-04-17T20:11:28.042Z,6.60
2018-04-17T20:13:57.082Z,6.77
2018-04-17T20:16:27.185Z,7.27
2018-04-17T20:18:56.011Z,7.10
2018-04-17T20:21:26.187Z,6.53
2018-04-17T20:23:58.088Z,6.63
2018-04-17T20:26:28.037Z,7.47
2018-04-17T20:28:56.933Z,6.70
2018-04-17T20:31:26.567Z,6.93
2018-04-17T20:33:56.333Z,8.47
2018-04-17T20:36:25.907Z,8.67
2018-04-17T20:38:55.560Z,8.70
2018-04-17T20:41:24.506Z,7.60
2018-04-17T20:43:53.842Z,5.50
2018-04-17T20:46:22.937Z,5.27
2018-04-17T20:48:53.103Z,4.57
2018-04-17T20:51:22.347Z,4.77
2018-04-17T20:53:53.051Z,5.63
2018-04-17T20:56:22.487Z,5.63
2018-04-17T20:58:51.322Z,4.53
2018-04-17T21:01:20.626Z,4.43
2018-04-17T21:03:49.989Z,4.60
2018-04-17T21:06:19.527Z,4.77
2018-04-17T21:08:48.251Z,5.07
2018-04-17T21:11:16.879Z,5.73
2018-04-17T21:13:45.564Z,5.97
2018-04-17T21:16:15.056Z,4.80
2018-04-17T21:18:44.936Z,5.00
2018-04-17T21:21:13.694Z,4.60
2018-04-17T21:23:43.047Z,4.53
2018-04-17T21:26:12.497Z,4.67
2018-04-17T21:28:41.179Z,5.97
2018-04-17T21:31:09.846Z,4.70
2018-04-17T21:33:38.499Z,4.33
2018-04-17T21:36:07.072Z,4.57
2018-04-17T21:38:35.704Z,4.60
2018-04-17T21:41:04.534Z,5.13
2018-04-17T21:43:33.239Z,6.07
2018-04-17T21:46:01.899Z,8.30
2018-04-17T21:48:31.412Z,6.60
2018-04-17T21:51:00.393Z,5.43
2018-04-17T21:53:29.158Z,4.70
2018-04-17T21:55:58.525Z,4.50
2018-04-17T21:58:27.130Z,4.63
2018-04-17T22:00:55.810Z,3.70
2018-04-17T22:03:24.463Z,4.87
2018-04-17T22:05:53.067Z,4.40
2018-04-17T22:08:22.472Z,3.97
2018-04-17T22:10:51.085Z,3.83
2018-04-17T22:13:19.707Z,3.43
2018-04-17T22:15:48.374Z,3.50
2018-04-17T22:18:17.143Z,3.63
2018-04-17T22:20:46.414Z,3.77
2018-04-17T22:23:15.753Z,3.30
2018-04-17T22:25:44.479Z,3.00
2018-04-17T22:28:13.230Z,3.83
2018-04-17T22:30:41.933Z,3.70
2018-04-17T22:33:11.452Z,3.80
2018-04-17T22:35:40.883Z,3.43
2018-04-17T22:38:09.668Z,4.33
2018-04-17T22:40:38.461Z,3.63
2018-04-17T22:43:07.129Z,3.57
2018-04-17T22:45:35.915Z,3.57
2018-04-17T22:48:05.383Z,3.90
2018-04-17T22:50:34.852Z,3.83
2018-04-17T22:53:03.871Z,3.80
2018-04-17T22:55:32.585Z,3.47
2018-04-17T22:58:02.135Z,4.43
2018-04-17T23:00:30.793Z,3.60
2018-04-17T23:02:59.459Z,3.43
2018-04-17T23:05:28.099Z,4.20
2018-04-17T23:07:56.683Z,4.07
2018-04-17T23:10:25.347Z,3.13
2018-04-17T23:12:54.741Z,6.33
2018-04-17T23:15:23.422Z,3.50
2018-04-17T23:17:52.048Z,4.03
2018-04-17T23:20:20.775Z,3.60
2018-04-17T23:22:49.636Z,3.83
2018-04-17T23:25:18.946Z,3.90
2018-04-17T23:27:47.753Z,4.13
2018-04-17T23:30:16.344Z,3.90
2018-04-17T23:32:45.676Z,3.17
2018-04-17T23:35:15.075Z,4.03
2018-04-17T23:37:44.439Z,3.87
2018-04-17T23:40:13.033Z,2.57
2018-04-17T23:42:41.673Z,3.67
2018-04-17T23:45:10.322Z,2.90
2018-04-17T23:47:39.746Z,3.50
2018-04-17T23:50:09.105Z,3.20
2018-04-17T23:52:37.927Z,3.20
2018-04-17T23:55:07.445Z,3.80
2018-04-17T23:57:36.341Z,2.93
